sensor_id;sensor_type;location;lat;lon;timestamp;pressure;altitude;pressure_sealevel;temperature;humidity
39491;BME280;25175;50.140;18.990;2023-06-14T00:00:24;98421.16;;;10.53;63.63
39491;BME280;25175;50.140;18.990;2023-06-14T00:03:30;98418.34;;;10.48;63.73
39491;BME280;25175;50.140;18.990;2023-06-14T00:06:37;98418.75;;;10.45;64.00
39491;BME280;25175;50.140;18.990;2023-06-14T00:09:43;98421.81;;;10.42;64.02
39491;BME280;25175;50.140;18.990;2023-06-14T00:12:52;98411.94;;;10.37;64.13
39491;BME280;25175;50.140;18.990;2023-06-14T00:16:02;98401.13;;;10.21;64.29
39491;BME280;25175;50.140;18.990;2023-06-14T00:19:18;98410.59;;;10.22;64.58
39491;BME280;25175;50.140;18.990;2023-06-14T00:22:27;98371.38;;;9.89;64.75
39491;BME280;25175;50.140;18.990;2023-06-14T00:25:33;98418.47;;;10.15;64.81
39491;BME280;25175;50.140;18.990;2023-06-14T00:28:42;98412.44;;;10.15;64.93
39491;BME280;25175;50.140;18.990;2023-06-14T00:31:50;98419.66;;;10.19;65.06
39491;BME280;25175;50.140;18.990;2023-06-14T00:35:03;98412.00;;;10.24;64.80
39491;BME280;25175;50.140;18.990;2023-06-14T00:38:11;98404.72;;;10.26;64.80
39491;BME280;25175;50.140;18.990;2023-06-14T00:41:18;98416.00;;;10.27;64.73
39491;BME280;25175;50.140;18.990;2023-06-14T00:44:41;98402.50;;;10.30;64.63
39491;BME280;25175;50.140;18.990;2023-06-14T00:47:51;98407.75;;;10.30;64.63
39491;BME280;25175;50.140;18.990;2023-06-14T00:51:00;98384.94;;;10.30;64.23
39491;BME280;25175;50.140;18.990;2023-06-14T00:54:08;98399.78;;;10.49;63.44
39491;BME280;25175;50.140;18.990;2023-06-14T00:57:29;98413.03;;;10.61;62.55
39491;BME280;25175;50.140;18.990;2023-06-14T01:00:35;98058.13;;;8.48;61.86
39491;BME280;25175;50.140;18.990;2023-06-14T01:03:43;98403.91;;;10.70;61.63
39491;BME280;25175;50.140;18.990;2023-06-14T01:07:01;98394.00;;;10.72;61.52
39491;BME280;25175;50.140;18.990;2023-06-14T01:10:34;98394.81;;;10.72;61.44
39491;BME280;25175;50.140;18.990;2023-06-14T01:13:47;98401.03;;;10.78;61.27
39491;BME280;25175;50.140;18.990;2023-06-14T01:16:58;98398.00;;;10.81;61.19
39491;BME280;25175;50.140;18.990;2023-06-14T01:20:09;98394.56;;;10.80;61.59
39491;BME280;25175;50.140;18.990;2023-06-14T01:23:20;98395.38;;;10.81;61.30
39491;BME280;25175;50.140;18.990;2023-06-14T01:26:29;98398.00;;;10.81;60.76
39491;BME280;25175;50.140;18.990;2023-06-14T01:29:35;98399.59;;;10.82;60.91
39491;BME280;25175;50.140;18.990;2023-06-14T01:32:52;98378.13;;;10.60;62.02
39491;BME280;25175;50.140;18.990;2023-06-14T01:36:01;98389.22;;;10.62;62.36
39491;BME280;25175;50.140;18.990;2023-06-14T01:39:14;98394.69;;;10.54;62.77
39491;BME280;25175;50.140;18.990;2023-06-14T01:42:23;98386.88;;;10.48;62.80
39491;BME280;25175;50.140;18.990;2023-06-14T01:45:31;98385.28;;;10.47;62.47
39491;BME280;25175;50.140;18.990;2023-06-14T01:48:37;98395.13;;;10.51;61.79
39491;BME280;25175;50.140;18.990;2023-06-14T01:51:46;98391.28;;;10.54;61.28
39491;BME280;25175;50.140;18.990;2023-06-14T01:54:54;98385.00;;;10.55;60.87
39491;BME280;25175;50.140;18.990;2023-06-14T01:58:01;98387.63;;;10.55;60.89
39491;BME280;25175;50.140;18.990;2023-06-14T02:01:06;98383.22;;;10.55;60.53
39491;BME280;25175;50.140;18.990;2023-06-14T02:04:13;98393.69;;;10.55;59.76
39491;BME280;25175;50.140;18.990;2023-06-14T02:07:18;98393.91;;;10.54;59.95
39491;BME280;25175;50.140;18.990;2023-06-14T02:10:27;98394.31;;;10.51;60.03
39491;BME280;25175;50.140;18.990;2023-06-14T02:13:33;98376.59;;;10.46;59.94
39491;BME280;25175;50.140;18.990;2023-06-14T02:16:48;98394.31;;;10.51;60.09
39491;BME280;25175;50.140;18.990;2023-06-14T02:20:01;98386.06;;;10.47;60.92
39491;BME280;25175;50.140;18.990;2023-06-14T02:23:08;98393.53;;;10.44;61.22
39491;BME280;25175;50.140;18.990;2023-06-14T02:26:15;98380.88;;;10.41;61.28
39491;BME280;25175;50.140;18.990;2023-06-14T02:29:29;98380.88;;;10.41;61.64
39491;BME280;25175;50.140;18.990;2023-06-14T02:32:34;98395.34;;;10.43;61.65
39491;BME280;25175;50.140;18.990;2023-06-14T02:35:41;98389.13;;;10.44;62.20
39491;BME280;25175;50.140;18.990;2023-06-14T02:38:46;98396.56;;;10.47;62.31
39491;BME280;25175;50.140;18.990;2023-06-14T02:41:58;98376.56;;;10.53;62.22
39491;BME280;25175;50.140;18.990;2023-06-14T02:45:04;98311.19;;;10.14;62.35
39491;BME280;25175;50.140;18.990;2023-06-14T02:48:27;98383.97;;;10.62;62.66
39491;BME280;25175;50.140;18.990;2023-06-14T02:51:36;98382.56;;;10.60;62.96
39491;BME280;25175;50.140;18.990;2023-06-14T02:54:43;98391.28;;;10.54;63.36
39491;BME280;25175;50.140;18.990;2023-06-14T02:57:54;98374.41;;;10.37;63.48
39491;BME280;25175;50.140;18.990;2023-06-14T03:01:02;98382.88;;;10.39;63.93
39491;BME280;25175;50.140;18.990;2023-06-14T03:04:12;98384.47;;;10.40;64.28
39491;BME280;25175;50.140;18.990;2023-06-14T03:07:19;98379.22;;;10.40;64.58
39491;BME280;25175;50.140;18.990;2023-06-14T03:10:30;98385.09;;;10.42;64.66
39491;BME280;25175;50.140;18.990;2023-06-14T03:13:38;98374.81;;;10.40;64.80
39491;BME280;25175;50.140;18.990;2023-06-14T03:16:44;98379.63;;;10.43;65.20
39491;BME280;25175;50.140;18.990;2023-06-14T03:19:53;98377.41;;;10.47;65.38
39491;BME280;25175;50.140;18.990;2023-06-14T03:22:58;98372.53;;;10.50;65.42
39491;BME280;25175;50.140;18.990;2023-06-14T03:26:04;98378.16;;;10.54;65.45
39491;BME280;25175;50.140;18.990;2023-06-14T03:29:12;98018.34;;;8.33;65.42
39491;BME280;25175;50.140;18.990;2023-06-14T03:32:19;98377.72;;;10.57;65.64
39491;BME280;25175;50.140;18.990;2023-06-14T03:35:48;98385.59;;;10.57;65.88
39491;BME280;25175;50.140;18.990;2023-06-14T03:38:54;98379.13;;;10.59;65.94
39491;BME280;25175;50.140;18.990;2023-06-14T03:42:00;98385.56;;;10.63;66.23
39491;BME280;25175;50.140;18.990;2023-06-14T03:45:10;98376.09;;;10.62;66.29
39491;BME280;25175;50.140;18.990;2023-06-14T03:48:15;98380.69;;;10.73;66.26
39491;BME280;25175;50.140;18.990;2023-06-14T03:51:24;98336.59;;;10.51;66.23
39491;BME280;25175;50.140;18.990;2023-06-14T03:54:30;98375.81;;;10.77;66.42
39491;BME280;25175;50.140;18.990;2023-06-14T03:57:37;98370.53;;;10.83;66.38
39491;BME280;25175;50.140;18.990;2023-06-14T04:00:48;98378.56;;;10.88;66.57
39491;BME280;25175;50.140;18.990;2023-06-14T04:03:56;98382.59;;;10.91;66.61
39491;BME280;25175;50.140;18.990;2023-06-14T04:07:03;98382.59;;;10.91;66.52
39491;BME280;25175;50.140;18.990;2023-06-14T04:10:12;98386.66;;;10.93;66.95
39491;BME280;25175;50.140;18.990;2023-06-14T04:13:17;98382.78;;;10.96;67.01
39491;BME280;25175;50.140;18.990;2023-06-14T04:16:27;98397.09;;;11.00;67.22
39491;BME280;25175;50.140;18.990;2023-06-14T04:19:32;98386.09;;;11.09;67.23
39491;BME280;25175;50.140;18.990;2023-06-14T04:22:38;98397.56;;;11.21;67.24
39491;BME280;25175;50.140;18.990;2023-06-14T04:25:47;98406.56;;;11.32;67.14
39491;BME280;25175;50.140;18.990;2023-06-14T04:29:04;98372.53;;;11.19;66.97
39491;BME280;25175;50.140;18.990;2023-06-14T04:32:19;98399.94;;;11.47;66.62
39491;BME280;25175;50.140;18.990;2023-06-14T04:35:31;98399.91;;;11.54;66.60
39491;BME280;25175;50.140;18.990;2023-06-14T04:38:38;98396.97;;;11.62;66.72
39491;BME280;25175;50.140;18.990;2023-06-14T04:41:45;98390.44;;;11.71;66.69
39491;BME280;25175;50.140;18.990;2023-06-14T04:44:53;98391.97;;;11.78;66.17
39491;BME280;25175;50.140;18.990;2023-06-14T04:48:03;98378.25;;;11.76;65.81
39491;BME280;25175;50.140;18.990;2023-06-14T04:51:09;98405.22;;;11.90;65.81
39491;BME280;25175;50.140;18.990;2023-06-14T04:54:15;98399.09;;;11.96;65.37
39491;BME280;25175;50.140;18.990;2023-06-14T04:57:22;98400.25;;;12.00;65.28
39491;BME280;25175;50.140;18.990;2023-06-14T05:00:34;98395.53;;;12.08;65.27
39491;BME280;25175;50.140;18.990;2023-06-14T05:03:42;98396.03;;;12.17;65.24
39491;BME280;25175;50.140;18.990;2023-06-14T05:06:51;98403.63;;;12.25;65.21
39491;BME280;25175;50.140;18.990;2023-06-14T05:09:57;98396.81;;;12.35;65.04
39491;BME280;25175;50.140;18.990;2023-06-14T05:13:06;98403.03;;;12.41;65.07
39491;BME280;25175;50.140;18.990;2023-06-14T05:16:12;98405.81;;;12.46;64.71
39491;BME280;25175;50.140;18.990;2023-06-14T05:19:22;98398.94;;;12.45;64.42
39491;BME280;25175;50.140;18.990;2023-06-14T05:22:31;98412.97;;;12.57;64.36
39491;BME280;25175;50.140;18.990;2023-06-14T05:25:37;98409.09;;;12.59;64.41
39491;BME280;25175;50.140;18.990;2023-06-14T05:28:45;98423.03;;;12.60;64.56
39491;BME280;25175;50.140;18.990;2023-06-14T05:31:52;98423.19;;;12.65;64.76
39491;BME280;25175;50.140;18.990;2023-06-14T05:34:59;98422.28;;;12.71;64.93
39491;BME280;25175;50.140;18.990;2023-06-14T05:38:06;98427.47;;;12.77;64.71
39491;BME280;25175;50.140;18.990;2023-06-14T05:41:11;98430.03;;;12.84;64.46
39491;BME280;25175;50.140;18.990;2023-06-14T05:44:17;98426.72;;;12.88;64.33
39491;BME280;25175;50.140;18.990;2023-06-14T05:47:26;98431.75;;;12.90;64.36
39491;BME280;25175;50.140;18.990;2023-06-14T05:50:34;98420.19;;;12.91;64.81
39491;BME280;25175;50.140;18.990;2023-06-14T05:53:39;98420.53;;;12.94;64.74
39491;BME280;25175;50.140;18.990;2023-06-14T05:56:45;98428.63;;;12.99;64.70
39491;BME280;25175;50.140;18.990;2023-06-14T05:59:51;98432.75;;;13.07;64.86
39491;BME280;25175;50.140;18.990;2023-06-14T06:02:59;98428.66;;;13.11;65.15
39491;BME280;25175;50.140;18.990;2023-06-14T06:06:07;98428.66;;;13.11;64.91
39491;BME280;25175;50.140;18.990;2023-06-14T06:09:13;98431.66;;;13.14;65.34
39491;BME280;25175;50.140;18.990;2023-06-14T06:12:33;98425.56;;;13.14;64.81
39491;BME280;25175;50.140;18.990;2023-06-14T06:15:49;98415.09;;;13.07;64.43
39491;BME280;25175;50.140;18.990;2023-06-14T06:18:55;98427.50;;;13.18;65.05
39491;BME280;25175;50.140;18.990;2023-06-14T06:22:03;98416.50;;;13.10;64.70
39491;BME280;25175;50.140;18.990;2023-06-14T06:25:10;98442.97;;;13.15;64.83
39491;BME280;25175;50.140;18.990;2023-06-14T06:28:16;98429.91;;;13.08;65.29
39491;BME280;25175;50.140;18.990;2023-06-14T06:31:22;98443.22;;;13.25;65.15
39491;BME280;25175;50.140;18.990;2023-06-14T06:34:28;98449.44;;;13.30;65.32
39491;BME280;25175;50.140;18.990;2023-06-14T06:37:37;98448.53;;;13.36;65.40
39491;BME280;25175;50.140;18.990;2023-06-14T06:40:43;98442.44;;;13.36;65.17
39491;BME280;25175;50.140;18.990;2023-06-14T06:43:49;98451.19;;;13.48;65.10
39491;BME280;25175;50.140;18.990;2023-06-14T06:46:54;98448.44;;;13.54;65.10
39491;BME280;25175;50.140;18.990;2023-06-14T06:50:01;98464.25;;;13.54;65.10
39491;BME280;25175;50.140;18.990;2023-06-14T06:53:10;98457.25;;;13.60;64.84
39491;BME280;25175;50.140;18.990;2023-06-14T06:56:18;98444.19;;;13.65;64.65
39491;BME280;25175;50.140;18.990;2023-06-14T06:59:24;98466.69;;;13.67;64.81
39491;BME280;25175;50.140;18.990;2023-06-14T07:02:31;98459.38;;;13.69;64.92
39491;BME280;25175;50.140;18.990;2023-06-14T07:05:38;98459.94;;;13.71;64.97
39491;BME280;25175;50.140;18.990;2023-06-14T07:08:47;98472.66;;;13.74;64.85
39491;BME280;25175;50.140;18.990;2023-06-14T07:12:10;98463.38;;;13.72;64.38
39491;BME280;25175;50.140;18.990;2023-06-14T07:15:48;98466.69;;;13.79;64.52
39491;BME280;25175;50.140;18.990;2023-06-14T07:18:54;98476.56;;;13.83;64.66
39491;BME280;25175;50.140;18.990;2023-06-14T07:22:00;98474.25;;;13.87;64.03
39491;BME280;25175;50.140;18.990;2023-06-14T07:25:12;98401.75;;;13.32;64.00
39491;BME280;25175;50.140;18.990;2023-06-14T07:28:22;98483.81;;;13.88;64.26
39491;BME280;25175;50.140;18.990;2023-06-14T07:31:27;98483.00;;;13.87;64.57
39491;BME280;25175;50.140;18.990;2023-06-14T07:34:36;98480.56;;;13.86;64.82
39491;BME280;25175;50.140;18.990;2023-06-14T07:37:41;98484.69;;;13.82;64.60
39491;BME280;25175;50.140;18.990;2023-06-14T07:40:50;98492.25;;;13.78;64.92
39491;BME280;25175;50.140;18.990;2023-06-14T07:43:55;98477.00;;;13.69;65.10
39491;BME280;25175;50.140;18.990;2023-06-14T07:47:07;98503.16;;;13.82;65.28
39491;BME280;25175;50.140;18.990;2023-06-14T07:53:56;98503.22;;;13.93;65.48
39491;BME280;25175;50.140;18.990;2023-06-14T07:57:05;98498.88;;;13.99;65.80
39491;BME280;25175;50.140;18.990;2023-06-14T08:00:12;98500.22;;;14.01;66.08
39491;BME280;25175;50.140;18.990;2023-06-14T08:03:19;98580.41;;;14.00;66.32
39491;BME280;25175;50.140;18.990;2023-06-14T08:06:27;98505.16;;;13.98;66.31
39491;BME280;25175;50.140;18.990;2023-06-14T08:09:35;98502.16;;;13.94;66.10
39491;BME280;25175;50.140;18.990;2023-06-14T08:12:45;98495.50;;;13.92;66.20
39491;BME280;25175;50.140;18.990;2023-06-14T08:15:53;98492.50;;;13.88;66.76
39491;BME280;25175;50.140;18.990;2023-06-14T08:19:01;98494.91;;;13.90;66.89
39491;BME280;25175;50.140;18.990;2023-06-14T08:22:07;98500.63;;;13.87;67.09
39491;BME280;25175;50.140;18.990;2023-06-14T08:25:14;98494.22;;;13.83;67.40
39491;BME280;25175;50.140;18.990;2023-06-14T08:28:49;98493.97;;;13.84;67.25
39491;BME280;25175;50.140;18.990;2023-06-14T08:31:56;98477.47;;;13.77;67.17
39491;BME280;25175;50.140;18.990;2023-06-14T08:35:02;98494.81;;;13.85;67.60
39491;BME280;25175;50.140;18.990;2023-06-14T08:38:12;98497.00;;;13.88;67.66
39491;BME280;25175;50.140;18.990;2023-06-14T08:41:21;98500.97;;;13.90;67.86
39491;BME280;25175;50.140;18.990;2023-06-14T08:44:33;98505.97;;;13.98;67.61
39491;BME280;25175;50.140;18.990;2023-06-14T08:47:39;98484.53;;;13.95;67.26
39491;BME280;25175;50.140;18.990;2023-06-14T08:50:56;98511.47;;;14.20;67.21
39491;BME280;25175;50.140;18.990;2023-06-14T08:54:07;98504.25;;;14.15;66.05
39491;BME280;25175;50.140;18.990;2023-06-14T08:57:26;98502.28;;;14.22;65.90
39491;BME280;25175;50.140;18.990;2023-06-14T09:00:38;98520.53;;;14.35;65.80
39491;BME280;25175;50.140;18.990;2023-06-14T09:03:52;98523.63;;;14.44;66.32
39491;BME280;25175;50.140;18.990;2023-06-14T09:06:59;98535.69;;;14.51;65.90
39491;BME280;25175;50.140;18.990;2023-06-14T09:10:14;98523.25;;;14.52;66.02
39491;BME280;25175;50.140;18.990;2023-06-14T09:13:20;98531.97;;;14.63;65.81
39491;BME280;25175;50.140;18.990;2023-06-14T09:16:35;98536.91;;;14.72;65.67
39491;BME280;25175;50.140;18.990;2023-06-14T09:19:48;98531.13;;;14.74;65.22
39491;BME280;25175;50.140;18.990;2023-06-14T09:22:58;98526.69;;;14.63;64.86
39491;BME280;25175;50.140;18.990;2023-06-14T09:26:07;98527.16;;;14.61;64.65
39491;BME280;25175;50.140;18.990;2023-06-14T09:29:30;98526.78;;;14.68;64.48
39491;BME280;25175;50.140;18.990;2023-06-14T09:32:54;98530.03;;;14.71;64.41
39491;BME280;25175;50.140;18.990;2023-06-14T09:36:00;98526.78;;;14.68;64.84
39491;BME280;25175;50.140;18.990;2023-06-14T09:39:05;98538.13;;;14.80;63.98
39491;BME280;25175;50.140;18.990;2023-06-14T09:42:17;98530.81;;;14.83;64.32
39491;BME280;25175;50.140;18.990;2023-06-14T09:45:25;98531.97;;;14.87;63.72
39491;BME280;25175;50.140;18.990;2023-06-14T09:48:37;98505.44;;;14.82;63.16
39491;BME280;25175;50.140;18.990;2023-06-14T09:55:45;98532.84;;;14.92;62.68
39491;BME280;25175;50.140;18.990;2023-06-14T09:58:55;98525.25;;;14.96;63.15
39491;BME280;25175;50.140;18.990;2023-06-14T10:02:12;98533.84;;;15.02;63.13
39491;BME280;25175;50.140;18.990;2023-06-14T10:05:28;98533.72;;;15.09;63.05
39491;BME280;25175;50.140;18.990;2023-06-14T10:08:52;98534.28;;;15.11;63.03
39491;BME280;25175;50.140;18.990;2023-06-14T10:12:01;98533.72;;;15.09;62.78
39491;BME280;25175;50.140;18.990;2023-06-14T10:15:13;98529.16;;;15.05;62.21
39491;BME280;25175;50.140;18.990;2023-06-14T10:18:44;98532.94;;;15.09;62.85
39491;BME280;25175;50.140;18.990;2023-06-14T10:22:02;98529.81;;;15.12;62.13
39491;BME280;25175;50.140;18.990;2023-06-14T10:25:13;98504.84;;;14.91;61.89
39491;BME280;25175;50.140;18.990;2023-06-14T10:28:37;98536.56;;;15.19;61.83
39491;BME280;25175;50.140;18.990;2023-06-14T10:31:47;98539.19;;;15.19;61.60
39491;BME280;25175;50.140;18.990;2023-06-14T10:34:56;98525.22;;;15.07;61.41
39491;BME280;25175;50.140;18.990;2023-06-14T10:38:11;98535.28;;;15.22;61.53
39491;BME280;25175;50.140;18.990;2023-06-14T10:41:27;98528.41;;;15.21;60.71
39491;BME280;25175;50.140;18.990;2023-06-14T10:44:40;98525.28;;;15.23;61.29
39491;BME280;25175;50.140;18.990;2023-06-14T10:47:57;98520.41;;;15.32;61.16
39491;BME280;25175;50.140;18.990;2023-06-14T10:51:04;98519.81;;;15.42;60.91
39491;BME280;25175;50.140;18.990;2023-06-14T10:54:15;98513.78;;;15.46;61.05
39491;BME280;25175;50.140;18.990;2023-06-14T10:57:22;98507.31;;;15.53;61.13
39491;BME280;25175;50.140;18.990;2023-06-14T11:00:29;98505.88;;;15.62;60.51
39491;BME280;25175;50.140;18.990;2023-06-14T11:04:46;98500.94;;;15.83;60.97
39491;BME280;25175;50.140;18.990;2023-06-14T11:08:13;98502.94;;;15.92;59.46
39491;BME280;25175;50.140;18.990;2023-06-14T11:12:10;98501.34;;;16.08;60.11
39491;BME280;25175;50.140;18.990;2023-06-14T11:15:18;98503.13;;;16.23;59.52
39491;BME280;25175;50.140;18.990;2023-06-14T11:18:36;98493.81;;;16.37;59.56
39491;BME280;25175;50.140;18.990;2023-06-14T11:21:49;98493.88;;;16.42;58.57
39491;BME280;25175;50.140;18.990;2023-06-14T11:24:55;98501.81;;;16.42;58.47
39491;BME280;25175;50.140;18.990;2023-06-14T11:28:07;98502.13;;;16.46;58.68
39491;BME280;25175;50.140;18.990;2023-06-14T11:31:13;98505.25;;;16.59;58.82
39491;BME280;25175;50.140;18.990;2023-06-14T11:34:31;98489.38;;;16.59;59.24
39491;BME280;25175;50.140;18.990;2023-06-14T11:37:37;98475.91;;;16.87;58.41
39491;BME280;25175;50.140;18.990;2023-06-14T11:40:43;98492.72;;;16.98;57.30
39491;BME280;25175;50.140;18.990;2023-06-14T11:43:52;98494.88;;;17.01;57.18
39491;BME280;25175;50.140;18.990;2023-06-14T11:46:58;98497.84;;;17.04;56.15
39491;BME280;25175;50.140;18.990;2023-06-14T11:50:15;98490.44;;;17.06;56.13
39491;BME280;25175;50.140;18.990;2023-06-14T11:53:20;98482.28;;;16.86;55.24
39491;BME280;25175;50.140;18.990;2023-06-14T11:56:29;98479.59;;;17.29;56.29
39491;BME280;25175;50.140;18.990;2023-06-14T11:59:40;98473.38;;;17.50;55.41
39491;BME280;25175;50.140;18.990;2023-06-14T12:02:52;98456.25;;;17.31;54.64
39491;BME280;25175;50.140;18.990;2023-06-14T12:06:05;98477.03;;;17.44;53.81
39491;BME280;25175;50.140;18.990;2023-06-14T12:09:15;98472.56;;;17.45;54.47
39491;BME280;25175;50.140;18.990;2023-06-14T12:16:13;98469.28;;;17.33;54.25
39491;BME280;25175;50.140;18.990;2023-06-14T12:19:26;98469.03;;;17.39;55.12
39491;BME280;25175;50.140;18.990;2023-06-14T12:22:38;98464.63;;;17.50;54.49
39491;BME280;25175;50.140;18.990;2023-06-14T12:25:44;98458.13;;;17.62;53.75
39491;BME280;25175;50.140;18.990;2023-06-14T12:28:52;98465.69;;;17.80;53.32
39491;BME280;25175;50.140;18.990;2023-06-14T12:32:00;98460.22;;;17.97;53.70
39491;BME280;25175;50.140;18.990;2023-06-14T12:35:07;98451.88;;;18.15;51.69
39491;BME280;25175;50.140;18.990;2023-06-14T12:38:12;98468.66;;;18.25;50.61
39491;BME280;25175;50.140;18.990;2023-06-14T12:41:18;98466.31;;;18.34;51.51
39491;BME280;25175;50.140;18.990;2023-06-14T12:44:24;98452.56;;;18.42;51.90
39491;BME280;25175;50.140;18.990;2023-06-14T12:47:41;98445.91;;;18.44;50.71
39491;BME280;25175;50.140;18.990;2023-06-14T12:50:54;98455.50;;;18.50;51.02
39491;BME280;25175;50.140;18.990;2023-06-14T12:54:00;98457.16;;;18.61;51.67
39491;BME280;25175;50.140;18.990;2023-06-14T12:57:08;98447.59;;;18.70;51.28
39491;BME280;25175;50.140;18.990;2023-06-14T13:00:16;98438.13;;;18.84;50.78
39491;BME280;25175;50.140;18.990;2023-06-14T13:06:46;98422.75;;;19.11;51.86
39491;BME280;25175;50.140;18.990;2023-06-14T13:09:55;98429.69;;;19.27;48.46
39491;BME280;25175;50.140;18.990;2023-06-14T13:13:04;98425.97;;;19.48;49.55
39491;BME280;25175;50.140;18.990;2023-06-14T13:16:10;98420.91;;;19.72;49.55
39491;BME280;25175;50.140;18.990;2023-06-14T13:19:22;98426.47;;;19.85;48.45
39491;BME280;25175;50.140;18.990;2023-06-14T13:22:27;98423.81;;;19.90;46.75
39491;BME280;25175;50.140;18.990;2023-06-14T13:25:38;98428.38;;;19.80;46.61
39491;BME280;25175;50.140;18.990;2023-06-14T13:28:47;98430.75;;;19.81;45.89
39491;BME280;25175;50.140;18.990;2023-06-14T13:32:01;98430.78;;;19.76;46.54
39491;BME280;25175;50.140;18.990;2023-06-14T13:35:12;98417.97;;;19.78;45.58
39491;BME280;25175;50.140;18.990;2023-06-14T13:38:32;98423.81;;;20.00;46.56
39491;BME280;25175;50.140;18.990;2023-06-14T13:41:49;98420.06;;;20.06;44.58
39491;BME280;25175;50.140;18.990;2023-06-14T13:45:13;98422.47;;;19.98;44.82
39491;BME280;25175;50.140;18.990;2023-06-14T13:48:24;98426.22;;;19.97;45.23
39491;BME280;25175;50.140;18.990;2023-06-14T13:51:36;98413.41;;;19.94;45.26
39491;BME280;25175;50.140;18.990;2023-06-14T13:54:42;98421.16;;;19.80;44.55
39491;BME280;25175;50.140;18.990;2023-06-14T13:57:47;98424.91;;;19.79;45.35
39491;BME280;25175;50.140;18.990;2023-06-14T14:00:53;98424.09;;;19.84;45.11
39491;BME280;25175;50.140;18.990;2023-06-14T14:03:58;98421.97;;;19.81;45.15
39491;BME280;25175;50.140;18.990;2023-06-14T14:07:08;98404.13;;;19.81;44.46
39491;BME280;25175;50.140;18.990;2023-06-14T14:10:13;98434.72;;;20.04;43.06
39491;BME280;25175;50.140;18.990;2023-06-14T14:13:19;98433.13;;;19.98;42.27
39491;BME280;25175;50.140;18.990;2023-06-14T14:16:36;98424.88;;;20.04;42.70
39491;BME280;25175;50.140;18.990;2023-06-14T14:19:41;98425.88;;;20.13;43.63
39491;BME280;25175;50.140;18.990;2023-06-14T14:23:04;98430.16;;;20.24;44.92
39491;BME280;25175;50.140;18.990;2023-06-14T14:26:13;98405.41;;;20.09;44.55
39491;BME280;25175;50.140;18.990;2023-06-14T14:29:20;98424.06;;;20.04;44.44
39491;BME280;25175;50.140;18.990;2023-06-14T14:32:45;98419.81;;;19.93;45.90
39491;BME280;25175;50.140;18.990;2023-06-14T14:35:51;98429.91;;;20.01;45.23
39491;BME280;25175;50.140;18.990;2023-06-14T14:39:00;98425.13;;;20.08;45.39
39491;BME280;25175;50.140;18.990;2023-06-14T14:42:31;98422.72;;;20.11;45.55
39491;BME280;25175;50.140;18.990;2023-06-14T14:45:42;98421.63;;;20.12;45.74
39491;BME280;25175;50.140;18.990;2023-06-14T14:49:18;98424.03;;;20.09;44.62
39491;BME280;25175;50.140;18.990;2023-06-14T14:52:23;98418.47;;;20.00;44.52
39491;BME280;25175;50.140;18.990;2023-06-14T14:55:32;98413.19;;;19.80;43.98
39491;BME280;25175;50.140;18.990;2023-06-14T14:58:39;98412.13;;;19.76;44.48
39491;BME280;25175;50.140;18.990;2023-06-14T15:01:51;98397.50;;;19.69;44.45
39491;BME280;25175;50.140;18.990;2023-06-14T15:04:56;98413.19;;;19.80;46.73
39491;BME280;25175;50.140;18.990;2023-06-14T15:08:03;98409.72;;;19.75;47.46
39491;BME280;25175;50.140;18.990;2023-06-14T15:11:16;98412.66;;;19.63;46.53
39491;BME280;25175;50.140;18.990;2023-06-14T15:14:25;98405.72;;;19.42;46.80
39491;BME280;25175;50.140;18.990;2023-06-14T15:17:33;98408.66;;;19.31;46.57
39491;BME280;25175;50.140;18.990;2023-06-14T15:20:42;98412.38;;;19.15;46.96
39491;BME280;25175;50.140;18.990;2023-06-14T15:23:53;98410.22;;;19.02;46.87
39491;BME280;25175;50.140;18.990;2023-06-14T15:27:01;98414.50;;;19.08;47.31
39491;BME280;25175;50.140;18.990;2023-06-14T15:30:11;98419.78;;;19.13;46.84
39491;BME280;25175;50.140;18.990;2023-06-14T15:33:25;98410.47;;;18.95;46.65
39491;BME280;25175;50.140;18.990;2023-06-14T15:36:30;98415.25;;;18.88;47.47
39491;BME280;25175;50.140;18.990;2023-06-14T15:39:55;98408.59;;;18.81;47.59
39491;BME280;25175;50.140;18.990;2023-06-14T15:43:02;98402.47;;;18.80;47.38
39491;BME280;25175;50.140;18.990;2023-06-14T15:46:09;98403.53;;;18.84;46.73
39491;BME280;25175;50.140;18.990;2023-06-14T15:49:17;98408.31;;;18.87;46.11
39491;BME280;25175;50.140;18.990;2023-06-14T15:52:26;98405.16;;;18.95;45.98
39491;BME280;25175;50.140;18.990;2023-06-14T15:55:31;98402.50;;;19.00;46.49
39491;BME280;25175;50.140;18.990;2023-06-14T15:58:40;98372.41;;;18.85;45.57
39491;BME280;25175;50.140;18.990;2023-06-14T16:02:00;98406.78;;;19.06;45.77
39491;BME280;25175;50.140;18.990;2023-06-14T16:05:06;98412.88;;;19.07;45.13
39491;BME280;25175;50.140;18.990;2023-06-14T16:08:13;98406.22;;;19.04;45.17
39491;BME280;25175;50.140;18.990;2023-06-14T16:11:29;98195.44;;;17.67;45.30
39491;BME280;25175;50.140;18.990;2023-06-14T16:14:46;98409.44;;;19.06;45.01
39491;BME280;25175;50.140;18.990;2023-06-14T16:17:52;98407.31;;;19.13;45.68
39491;BME280;25175;50.140;18.990;2023-06-14T16:21:06;98416.88;;;19.09;45.56
39491;BME280;25175;50.140;18.990;2023-06-14T16:24:12;98407.84;;;19.05;46.07
39491;BME280;25175;50.140;18.990;2023-06-14T16:27:20;98401.44;;;18.96;46.19
39491;BME280;25175;50.140;18.990;2023-06-14T16:30:34;98421.38;;;18.99;46.63
39491;BME280;25175;50.140;18.990;2023-06-14T16:33:39;98414.47;;;18.98;46.78
39491;BME280;25175;50.140;18.990;2023-06-14T16:36:48;98411.78;;;18.88;46.90
39491;BME280;25175;50.140;18.990;2023-06-14T16:39:54;98428.28;;;18.95;47.40
39491;BME280;25175;50.140;18.990;2023-06-14T16:47:09;98434.69;;;19.04;47.89
39491;BME280;25175;50.140;18.990;2023-06-14T16:50:20;98435.50;;;19.19;47.15
39491;BME280;25175;50.140;18.990;2023-06-14T16:53:56;98447.22;;;19.18;46.33